Detalii statie AGRONOVA [00001CEC]

Toti senzorii

Date Temperatura solului [C]Precipitatii [mm]Voltaj baterie [mV]Leaf Wetness [Min]HC Air temperature [C]HC Relative humidity [%]Punctul de roua [C]
medieminmaxsumaultimatimpmedieminmaxmediemediemin
2018-02-23 13:00:00 2.2 2.1 2.4 0 6796 1 0.79 1.22 0 0 0
2018-02-23 14:00:00 2.3 2.2 2.4 0 6806 1.17 1.04 1.28 0 0 0
2018-02-23 15:00:00 2.4 2.3 2.5 0 6796 1.28 1.23 1.38 0 0 0
2018-02-23 16:00:00 2.4 2.4 2.6 0 6786 1.31 1.2 1.4 0 0 0
2018-02-23 17:00:00 2.5 2.4 2.7 0 6718 1.44 1.34 1.5 0 0 0
2018-02-23 18:00:00 2.5 2.5 2.7 0 6668 1.4 1.36 1.46 0 0 0
2018-02-23 19:00:00 2.5 2.4 2.7 0 6630 1.4 1.38 1.43 0 0 0
2018-02-23 20:00:00 2.4 2.4 2.5 0 6610 1.4 1.37 1.43 0 0 0
2018-02-23 21:00:00 2.4 2.4 2.6 0 6600 1.33 1.26 1.39 0 0 0
2018-02-23 22:00:00 2.5 2.5 2.6 0 6582 1.28 1.26 1.31 0 0 0
2018-02-23 23:00:00 2.5 2.5 2.6 0 6582 1.19 1.13 1.26 0 0 0
2018-02-24 00:00:00 2.4 2.4 2.5 0 6572 1.1 1.07 1.13 0 0 0
2018-02-24 01:00:00 2.5 2.4 2.6 0 6572 1.08 1.06 1.1 0 0 0
2018-02-24 02:00:00 2.4 2.2 2.6 0 6562 1.03 1.03 1.06 0 0 0
2018-02-24 03:00:00 2.5 2.4 2.6 0 6572 0.98 0.95 1.04 0 0 0
2018-02-24 04:00:00 2.4 2.4 2.5 0 6562 0.92 0.9 0.96 0 0 0
2018-02-24 05:00:00 2.4 2.4 2.6 0 6562 0.87 0.82 0.92 0 0 0
2018-02-24 06:00:00 2.4 2.3 2.6 0 6562 0.82 0.78 0.87 0 0 0
2018-02-24 07:00:00 2.4 2.4 2.6 0 6562 0.76 0.72 0.8 0 0 0
2018-02-24 08:00:00 2.4 2.2 2.6 0 6562 0.77 0.72 0.82 0 0 0
2018-02-24 09:00:00 2.5 2.5 2.6 0 6582 0.86 0.79 0.95 0 0 0
2018-02-24 10:00:00 2.4 2.4 2.6 0 6600 1.12 0.96 1.26 0 0 0
2018-02-24 11:00:00 2.5 2.5 2.7 0 6630 1.29 1.17 1.44 0 0 0
2018-02-24 12:00:00 2.6 2.5 2.8 0 6688 1.67 1.37 1.86 0 0 0
2018-02-24 13:00:00 2.7 2.7 3 0 6688 1.95 1.87 2.05 0 0 0
2018-02-24 14:00:00 2.8 2.7 3.1 0 6708 2.3 1.99 2.49 0 0 0
2018-02-24 15:00:00 2.9 2.8 3.1 0 6688 2.42 2.34 2.54 0 0 0
2018-02-24 16:00:00 3 2.9 3.1 0 6660 2.31 2.25 2.46 0 0 0
2018-02-24 17:00:00 3 3 3.1 0.2 6620 2.09 1.96 2.27 0 0 0
2018-02-24 18:00:00 3 2.9 3.2 0.2 6590 1.77 1.67 1.87 0 0 0
2018-02-24 19:00:00 3 3 3.1 0.2 6582 1.55 1.44 1.64 0 0 0
2018-02-24 20:00:00 2.9 2.9 3.1 0.4 6572 1.13 0.98 1.37 0 0 0
2018-02-24 21:00:00 2.9 2.9 3 0.2 6562 0.56 0.06 0.92 0 0 0
2018-02-24 22:00:00 2.8 2.7 2.9 0 6562 -0.12 -0.36 0.14 0 0 0
2018-02-24 23:00:00 2.7 2.6 2.9 0 6552 -0.92 -1.31 -0.39 0 0 0
2018-02-25 00:00:00 2.6 2.5 2.8 0 6552 -1.67 -1.88 -1.43 0 0 0
2018-02-25 01:00:00 2.5 2.4 2.7 0 6552 -1.92 -2 -1.87 0 0 0
2018-02-25 02:00:00 2.4 2.4 2.6 0 6552 -2.13 -2.44 -1.99 0 0 0
2018-02-25 03:00:00 2.3 2.2 2.5 0 6552 -2.45 -2.54 -2.39 0 0 0
2018-02-25 04:00:00 2.3 2.2 2.5 0 6552 -2.57 -2.66 -2.46 0 0 0
2018-02-25 05:00:00 2.2 2.1 2.4 0 6542 -2.85 -3.17 -2.66 0 0 0
2018-02-25 06:00:00 2.1 2.1 2.2 0 6542 -3.17 -3.32 -3 0 0 0
2018-02-25 07:00:00 2 1.9 2.2 0 6542 -3.3 -3.39 -3.17 0 0 0
2018-02-25 08:00:00 1.9 1.9 2.1 0 6532 -3.37 -3.57 -3.29 0 0 0
2018-02-25 09:00:00 1.9 1.8 2 0 6572 -3.53 -3.61 -3.43 0 0 0
2018-02-25 10:00:00 1.8 1.7 2.1 0 6630 -3.63 -3.84 -3.46 0 0 0
2018-02-25 11:00:00 1.7 1.7 1.8 0 6728 -3.74 -3.89 -3.55 0 0 0
2018-02-25 12:00:00 1.6 1.6 1.7 0 6972 -3.52 -3.61 -3.43 0 0 0